sensor_id;sensor_type;location;lat;lon;timestamp;P1;durP1;ratioP1;P2;durP2;ratioP2
31043;SDS011;17710;52.520;13.352;2022-09-24T00:01:25;5.70;;;4.03;;
31043;SDS011;17710;52.520;13.352;2022-09-24T00:03:55;8.77;;;4.32;;
31043;SDS011;17710;52.520;13.352;2022-09-24T00:06:24;8.15;;;4.65;;
31043;SDS011;17710;52.520;13.352;2022-09-24T00:08:52;7.03;;;4.15;;
31043;SDS011;17710;52.520;13.352;2022-09-24T00:11:20;6.00;;;3.90;;
31043;SDS011;17710;52.520;13.352;2022-09-24T00:13:47;7.13;;;4.57;;
31043;SDS011;17710;52.520;13.352;2022-09-24T00:16:15;6.35;;;4.78;;
31043;SDS011;17710;52.520;13.352;2022-09-24T00:18:45;6.72;;;4.68;;
31043;SDS011;17710;52.520;13.352;2022-09-24T00:21:15;8.95;;;4.80;;
31043;SDS011;17710;52.520;13.352;2022-09-24T00:23:42;7.50;;;4.57;;
31043;SDS011;17710;52.520;13.352;2022-09-24T00:26:10;6.70;;;4.80;;
31043;SDS011;17710;52.520;13.352;2022-09-24T00:28:55;8.98;;;5.00;;
31043;SDS011;17710;52.520;13.352;2022-09-24T00:31:21;8.85;;;4.80;;
31043;SDS011;17710;52.520;13.352;2022-09-24T00:33:56;7.43;;;4.30;;
31043;SDS011;17710;52.520;13.352;2022-09-24T00:36:24;6.70;;;4.70;;
31043;SDS011;17710;52.520;13.352;2022-09-24T00:38:52;5.70;;;4.80;;
31043;SDS011;17710;52.520;13.352;2022-09-24T00:41:20;6.97;;;4.97;;
31043;SDS011;17710;52.520;13.352;2022-09-24T00:43:48;7.45;;;4.43;;
31043;SDS011;17710;52.520;13.352;2022-09-24T00:46:16;8.90;;;5.00;;
31043;SDS011;17710;52.520;13.352;2022-09-24T00:48:46;8.70;;;4.88;;
31043;SDS011;17710;52.520;13.352;2022-09-24T00:51:17;6.00;;;4.75;;
31043;SDS011;17710;52.520;13.352;2022-09-24T00:53:48;8.77;;;5.35;;
31043;SDS011;17710;52.520;13.352;2022-09-24T00:56:20;10.73;;;4.78;;
31043;SDS011;17710;52.520;13.352;2022-09-24T00:58:48;8.30;;;5.32;;
31043;SDS011;17710;52.520;13.352;2022-09-24T01:01:19;8.73;;;5.25;;
31043;SDS011;17710;52.520;13.352;2022-09-24T01:03:50;11.68;;;4.68;;
31043;SDS011;17710;52.520;13.352;2022-09-24T01:06:19;8.90;;;5.07;;
31043;SDS011;17710;52.520;13.352;2022-09-24T01:08:45;6.93;;;4.72;;
31043;SDS011;17710;52.520;13.352;2022-09-24T01:11:17;10.02;;;4.88;;
31043;SDS011;17710;52.520;13.352;2022-09-24T01:16:58;8.13;;;4.80;;
31043;SDS011;17710;52.520;13.352;2022-09-24T01:19:42;13.95;;;6.30;;
31043;SDS011;17710;52.520;13.352;2022-09-24T01:22:25;10.65;;;5.22;;
31043;SDS011;17710;52.520;13.352;2022-09-24T01:25:06;9.77;;;5.13;;
31043;SDS011;17710;52.520;13.352;2022-09-24T01:27:46;7.22;;;4.97;;
31043;SDS011;17710;52.520;13.352;2022-09-24T01:30:24;9.48;;;5.88;;
31043;SDS011;17710;52.520;13.352;2022-09-24T01:32:56;12.68;;;4.95;;
31043;SDS011;17710;52.520;13.352;2022-09-24T01:35:27;7.18;;;4.68;;
31043;SDS011;17710;52.520;13.352;2022-09-24T01:38:00;6.47;;;4.95;;
31043;SDS011;17710;52.520;13.352;2022-09-24T01:40:29;8.63;;;5.15;;
31043;SDS011;17710;52.520;13.352;2022-09-24T01:42:57;7.03;;;4.57;;
31043;SDS011;17710;52.520;13.352;2022-09-24T01:45:28;8.52;;;5.07;;
31043;SDS011;17710;52.520;13.352;2022-09-24T01:48:10;8.52;;;5.68;;
31043;SDS011;17710;52.520;13.352;2022-09-24T01:50:37;8.57;;;5.85;;
31043;SDS011;17710;52.520;13.352;2022-09-24T01:53:09;12.27;;;6.50;;
31043;SDS011;17710;52.520;13.352;2022-09-24T01:55:42;9.40;;;5.43;;
31043;SDS011;17710;52.520;13.352;2022-09-24T01:58:16;8.90;;;5.95;;
31043;SDS011;17710;52.520;13.352;2022-09-24T02:00:50;7.72;;;5.28;;
31043;SDS011;17710;52.520;13.352;2022-09-24T02:03:21;8.07;;;5.53;;
31043;SDS011;17710;52.520;13.352;2022-09-24T02:05:54;12.05;;;5.60;;
31043;SDS011;17710;52.520;13.352;2022-09-24T02:08:25;9.20;;;5.70;;
31043;SDS011;17710;52.520;13.352;2022-09-24T02:11:00;11.82;;;6.22;;
31043;SDS011;17710;52.520;13.352;2022-09-24T02:13:30;8.10;;;5.45;;
31043;SDS011;17710;52.520;13.352;2022-09-24T02:16:05;8.80;;;5.47;;
31043;SDS011;17710;52.520;13.352;2022-09-24T02:18:35;8.38;;;5.60;;
31043;SDS011;17710;52.520;13.352;2022-09-24T02:21:05;11.43;;;6.25;;
31043;SDS011;17710;52.520;13.352;2022-09-24T02:23:35;8.73;;;5.82;;
31043;SDS011;17710;52.520;13.352;2022-09-24T02:26:05;17.42;;;6.35;;
31043;SDS011;17710;52.520;13.352;2022-09-24T02:28:31;7.88;;;5.40;;
31043;SDS011;17710;52.520;13.352;2022-09-24T02:31:00;7.40;;;5.25;;
31043;SDS011;17710;52.520;13.352;2022-09-24T02:33:31;7.95;;;5.75;;
31043;SDS011;17710;52.520;13.352;2022-09-24T02:36:18;10.50;;;5.85;;
31043;SDS011;17710;52.520;13.352;2022-09-24T02:38:46;10.32;;;6.10;;
31043;SDS011;17710;52.520;13.352;2022-09-24T02:41:12;10.25;;;5.97;;
31043;SDS011;17710;52.520;13.352;2022-09-24T02:43:39;10.98;;;6.65;;
31043;SDS011;17710;52.520;13.352;2022-09-24T02:46:06;8.93;;;6.05;;
31043;SDS011;17710;52.520;13.352;2022-09-24T02:48:35;9.00;;;6.00;;
31043;SDS011;17710;52.520;13.352;2022-09-24T02:51:02;9.57;;;6.40;;
31043;SDS011;17710;52.520;13.352;2022-09-24T02:53:29;8.27;;;5.60;;
31043;SDS011;17710;52.520;13.352;2022-09-24T02:55:55;12.13;;;6.53;;
31043;SDS011;17710;52.520;13.352;2022-09-24T02:58:24;10.07;;;5.82;;
31043;SDS011;17710;52.520;13.352;2022-09-24T03:00:50;6.93;;;5.88;;
31043;SDS011;17710;52.520;13.352;2022-09-24T03:03:17;9.27;;;5.78;;
31043;SDS011;17710;52.520;13.352;2022-09-24T03:05:48;11.02;;;5.68;;
31043;SDS011;17710;52.520;13.352;2022-09-24T03:08:16;12.20;;;5.70;;
31043;SDS011;17710;52.520;13.352;2022-09-24T03:10:44;13.80;;;5.85;;
31043;SDS011;17710;52.520;13.352;2022-09-24T03:13:10;9.77;;;6.00;;
31043;SDS011;17710;52.520;13.352;2022-09-24T03:15:37;10.80;;;6.22;;
31043;SDS011;17710;52.520;13.352;2022-09-24T03:18:05;14.07;;;6.22;;
31043;SDS011;17710;52.520;13.352;2022-09-24T03:20:33;12.20;;;5.70;;
31043;SDS011;17710;52.520;13.352;2022-09-24T03:23:00;10.30;;;5.93;;
31043;SDS011;17710;52.520;13.352;2022-09-24T03:25:27;7.57;;;5.97;;
31043;SDS011;17710;52.520;13.352;2022-09-24T03:27:53;10.13;;;5.85;;
31043;SDS011;17710;52.520;13.352;2022-09-24T03:30:20;7.72;;;5.38;;
31043;SDS011;17710;52.520;13.352;2022-09-24T03:33:04;8.65;;;5.85;;
31043;SDS011;17710;52.520;13.352;2022-09-24T03:35:31;8.77;;;6.05;;
31043;SDS011;17710;52.520;13.352;2022-09-24T03:38:02;10.40;;;6.13;;
31043;SDS011;17710;52.520;13.352;2022-09-24T03:40:30;7.10;;;5.85;;
31043;SDS011;17710;52.520;13.352;2022-09-24T03:42:57;8.05;;;6.00;;
31043;SDS011;17710;52.520;13.352;2022-09-24T03:45:23;9.05;;;5.50;;
31043;SDS011;17710;52.520;13.352;2022-09-24T03:47:50;13.23;;;6.00;;
31043;SDS011;17710;52.520;13.352;2022-09-24T03:50:16;9.02;;;6.18;;
31043;SDS011;17710;52.520;13.352;2022-09-24T03:52:42;13.60;;;6.60;;
31043;SDS011;17710;52.520;13.352;2022-09-24T03:55:10;7.78;;;6.40;;
31043;SDS011;17710;52.520;13.352;2022-09-24T03:57:38;14.00;;;7.13;;
31043;SDS011;17710;52.520;13.352;2022-09-24T04:00:05;10.85;;;6.90;;
31043;SDS011;17710;52.520;13.352;2022-09-24T04:02:32;9.95;;;7.35;;
31043;SDS011;17710;52.520;13.352;2022-09-24T04:05:01;12.90;;;6.85;;
31043;SDS011;17710;52.520;13.352;2022-09-24T04:07:27;8.93;;;5.90;;
31043;SDS011;17710;52.520;13.352;2022-09-24T04:09:56;9.63;;;6.07;;
31043;SDS011;17710;52.520;13.352;2022-09-24T04:12:24;8.05;;;5.57;;
31043;SDS011;17710;52.520;13.352;2022-09-24T04:14:55;9.45;;;6.13;;
31043;SDS011;17710;52.520;13.352;2022-09-24T04:17:21;9.02;;;6.28;;
31043;SDS011;17710;52.520;13.352;2022-09-24T04:19:48;10.82;;;5.82;;
31043;SDS011;17710;52.520;13.352;2022-09-24T04:22:18;12.52;;;6.10;;
31043;SDS011;17710;52.520;13.352;2022-09-24T04:24:44;8.40;;;6.35;;
31043;SDS011;17710;52.520;13.352;2022-09-24T04:27:10;11.50;;;7.30;;
31043;SDS011;17710;52.520;13.352;2022-09-24T04:29:40;11.30;;;6.00;;
31043;SDS011;17710;52.520;13.352;2022-09-24T04:32:07;8.52;;;6.22;;
31043;SDS011;17710;52.520;13.352;2022-09-24T04:34:33;11.27;;;6.55;;
31043;SDS011;17710;52.520;13.352;2022-09-24T04:37:00;10.68;;;6.32;;
31043;SDS011;17710;52.520;13.352;2022-09-24T04:39:26;9.52;;;6.45;;
31043;SDS011;17710;52.520;13.352;2022-09-24T04:41:52;11.13;;;5.93;;
31043;SDS011;17710;52.520;13.352;2022-09-24T04:44:19;10.52;;;5.78;;
31043;SDS011;17710;52.520;13.352;2022-09-24T04:46:48;9.00;;;5.80;;
31043;SDS011;17710;52.520;13.352;2022-09-24T04:49:15;12.48;;;5.40;;
31043;SDS011;17710;52.520;13.352;2022-09-24T04:51:41;14.07;;;5.63;;
31043;SDS011;17710;52.520;13.352;2022-09-24T04:54:08;8.95;;;5.82;;
31043;SDS011;17710;52.520;13.352;2022-09-24T04:56:36;9.57;;;5.85;;
31043;SDS011;17710;52.520;13.352;2022-09-24T04:59:02;11.48;;;7.00;;
31043;SDS011;17710;52.520;13.352;2022-09-24T05:01:30;11.60;;;6.68;;
31043;SDS011;17710;52.520;13.352;2022-09-24T05:03:59;9.20;;;6.38;;
31043;SDS011;17710;52.520;13.352;2022-09-24T05:06:26;7.82;;;5.80;;
31043;SDS011;17710;52.520;13.352;2022-09-24T05:08:53;10.85;;;6.90;;
31043;SDS011;17710;52.520;13.352;2022-09-24T05:11:20;12.15;;;6.40;;
31043;SDS011;17710;52.520;13.352;2022-09-24T05:13:46;9.32;;;5.90;;
31043;SDS011;17710;52.520;13.352;2022-09-24T05:16:14;9.35;;;6.00;;
31043;SDS011;17710;52.520;13.352;2022-09-24T05:18:40;8.30;;;6.07;;
31043;SDS011;17710;52.520;13.352;2022-09-24T05:21:09;10.98;;;6.70;;
31043;SDS011;17710;52.520;13.352;2022-09-24T05:23:38;9.65;;;6.70;;
31043;SDS011;17710;52.520;13.352;2022-09-24T05:26:04;7.90;;;5.90;;
31043;SDS011;17710;52.520;13.352;2022-09-24T05:28:52;10.50;;;5.80;;
31043;SDS011;17710;52.520;13.352;2022-09-24T05:31:18;7.85;;;5.70;;
31043;SDS011;17710;52.520;13.352;2022-09-24T05:33:47;7.40;;;5.60;;
31043;SDS011;17710;52.520;13.352;2022-09-24T05:36:16;11.57;;;6.65;;
31043;SDS011;17710;52.520;13.352;2022-09-24T05:38:43;10.02;;;6.13;;
31043;SDS011;17710;52.520;13.352;2022-09-24T05:41:09;10.45;;;6.30;;
31043;SDS011;17710;52.520;13.352;2022-09-24T05:43:38;10.15;;;5.88;;
31043;SDS011;17710;52.520;13.352;2022-09-24T05:46:05;11.98;;;6.05;;
31043;SDS011;17710;52.520;13.352;2022-09-24T05:48:32;8.18;;;5.70;;
31043;SDS011;17710;52.520;13.352;2022-09-24T05:50:59;9.80;;;7.00;;
31043;SDS011;17710;52.520;13.352;2022-09-24T05:53:29;12.02;;;6.40;;
31043;SDS011;17710;52.520;13.352;2022-09-24T05:55:59;10.48;;;6.63;;
31043;SDS011;17710;52.520;13.352;2022-09-24T05:58:32;8.43;;;5.72;;
31043;SDS011;17710;52.520;13.352;2022-09-24T06:00:58;12.30;;;6.40;;
31043;SDS011;17710;52.520;13.352;2022-09-24T06:03:25;9.05;;;5.90;;
31043;SDS011;17710;52.520;13.352;2022-09-24T06:05:53;12.35;;;5.85;;
31043;SDS011;17710;52.520;13.352;2022-09-24T06:08:28;10.68;;;5.95;;
31043;SDS011;17710;52.520;13.352;2022-09-24T06:10:57;9.68;;;6.05;;
31043;SDS011;17710;52.520;13.352;2022-09-24T06:13:24;17.95;;;6.65;;
31043;SDS011;17710;52.520;13.352;2022-09-24T06:15:50;15.35;;;6.57;;
31043;SDS011;17710;52.520;13.352;2022-09-24T06:18:21;10.50;;;6.05;;
31043;SDS011;17710;52.520;13.352;2022-09-24T06:20:48;11.65;;;5.75;;
31043;SDS011;17710;52.520;13.352;2022-09-24T06:23:17;8.70;;;6.13;;
31043;SDS011;17710;52.520;13.352;2022-09-24T06:25:49;7.63;;;5.70;;
31043;SDS011;17710;52.520;13.352;2022-09-24T06:28:17;7.38;;;6.15;;
31043;SDS011;17710;52.520;13.352;2022-09-24T06:30:46;10.93;;;5.88;;
31043;SDS011;17710;52.520;13.352;2022-09-24T06:33:12;8.38;;;6.40;;
31043;SDS011;17710;52.520;13.352;2022-09-24T06:35:39;9.95;;;6.43;;
31043;SDS011;17710;52.520;13.352;2022-09-24T06:38:07;9.98;;;5.63;;
31043;SDS011;17710;52.520;13.352;2022-09-24T06:40:37;9.95;;;5.45;;
31043;SDS011;17710;52.520;13.352;2022-09-24T06:43:06;8.18;;;6.07;;
31043;SDS011;17710;52.520;13.352;2022-09-24T06:45:34;11.07;;;5.88;;
31043;SDS011;17710;52.520;13.352;2022-09-24T06:48:02;14.68;;;5.90;;
31043;SDS011;17710;52.520;13.352;2022-09-24T06:50:30;9.75;;;6.32;;
31043;SDS011;17710;52.520;13.352;2022-09-24T06:52:58;13.07;;;6.18;;
31043;SDS011;17710;52.520;13.352;2022-09-24T06:55:25;9.13;;;6.03;;
31043;SDS011;17710;52.520;13.352;2022-09-24T06:58:00;10.20;;;5.75;;
31043;SDS011;17710;52.520;13.352;2022-09-24T07:00:29;9.55;;;5.97;;
31043;SDS011;17710;52.520;13.352;2022-09-24T07:02:58;7.20;;;5.80;;
31043;SDS011;17710;52.520;13.352;2022-09-24T07:05:25;9.13;;;5.80;;
31043;SDS011;17710;52.520;13.352;2022-09-24T07:07:51;9.20;;;5.95;;
31043;SDS011;17710;52.520;13.352;2022-09-24T07:10:18;9.45;;;5.57;;
31043;SDS011;17710;52.520;13.352;2022-09-24T07:12:44;9.85;;;6.00;;
31043;SDS011;17710;52.520;13.352;2022-09-24T07:15:14;9.13;;;5.78;;
31043;SDS011;17710;52.520;13.352;2022-09-24T07:17:42;11.02;;;6.45;;
31043;SDS011;17710;52.520;13.352;2022-09-24T07:20:08;8.40;;;5.88;;
31043;SDS011;17710;52.520;13.352;2022-09-24T07:22:36;8.30;;;5.57;;
31043;SDS011;17710;52.520;13.352;2022-09-24T07:25:04;9.32;;;6.22;;
31043;SDS011;17710;52.520;13.352;2022-09-24T07:27:31;9.10;;;6.22;;
31043;SDS011;17710;52.520;13.352;2022-09-24T07:29:58;8.98;;;6.88;;
31043;SDS011;17710;52.520;13.352;2022-09-24T07:32:24;11.85;;;6.70;;
31043;SDS011;17710;52.520;13.352;2022-09-24T07:34:52;8.05;;;6.20;;
31043;SDS011;17710;52.520;13.352;2022-09-24T07:37:19;12.38;;;6.90;;
31043;SDS011;17710;52.520;13.352;2022-09-24T07:39:45;10.10;;;6.80;;
31043;SDS011;17710;52.520;13.352;2022-09-24T07:42:14;12.00;;;6.82;;
31043;SDS011;17710;52.520;13.352;2022-09-24T07:44:40;8.93;;;5.70;;
31043;SDS011;17710;52.520;13.352;2022-09-24T07:47:06;11.55;;;6.05;;
31043;SDS011;17710;52.520;13.352;2022-09-24T07:49:36;9.82;;;6.15;;
31043;SDS011;17710;52.520;13.352;2022-09-24T07:52:06;14.23;;;6.63;;
31043;SDS011;17710;52.520;13.352;2022-09-24T07:54:32;10.45;;;6.50;;
31043;SDS011;17710;52.520;13.352;2022-09-24T07:57:00;11.30;;;6.32;;
31043;SDS011;17710;52.520;13.352;2022-09-24T07:59:28;10.35;;;7.03;;
31043;SDS011;17710;52.520;13.352;2022-09-24T08:01:58;9.80;;;6.15;;
31043;SDS011;17710;52.520;13.352;2022-09-24T08:04:25;7.85;;;6.07;;
31043;SDS011;17710;52.520;13.352;2022-09-24T08:06:51;14.00;;;6.55;;
31043;SDS011;17710;52.520;13.352;2022-09-24T08:09:19;11.93;;;6.70;;
31043;SDS011;17710;52.520;13.352;2022-09-24T08:11:47;12.48;;;6.90;;
31043;SDS011;17710;52.520;13.352;2022-09-24T08:14:14;11.95;;;6.45;;
31043;SDS011;17710;52.520;13.352;2022-09-24T08:16:40;8.10;;;6.30;;
31043;SDS011;17710;52.520;13.352;2022-09-24T08:19:08;9.85;;;6.40;;
31043;SDS011;17710;52.520;13.352;2022-09-24T08:21:37;8.15;;;6.82;;
31043;SDS011;17710;52.520;13.352;2022-09-24T08:24:04;6.57;;;5.70;;
31043;SDS011;17710;52.520;13.352;2022-09-24T08:26:37;11.85;;;6.60;;
31043;SDS011;17710;52.520;13.352;2022-09-24T08:29:03;10.00;;;5.68;;
31043;SDS011;17710;52.520;13.352;2022-09-24T08:31:30;10.75;;;6.20;;
31043;SDS011;17710;52.520;13.352;2022-09-24T08:33:58;10.38;;;6.60;;
31043;SDS011;17710;52.520;13.352;2022-09-24T08:36:24;10.05;;;6.65;;
31043;SDS011;17710;52.520;13.352;2022-09-24T08:38:52;11.02;;;6.55;;
31043;SDS011;17710;52.520;13.352;2022-09-24T08:41:23;15.77;;;7.00;;
31043;SDS011;17710;52.520;13.352;2022-09-24T08:44:04;10.07;;;6.35;;
31043;SDS011;17710;52.520;13.352;2022-09-24T08:46:38;15.60;;;6.87;;
31043;SDS011;17710;52.520;13.352;2022-09-24T08:49:26;10.98;;;6.18;;
31043;SDS011;17710;52.520;13.352;2022-09-24T08:52:00;11.07;;;6.97;;
31043;SDS011;17710;52.520;13.352;2022-09-24T08:54:32;11.68;;;7.25;;
31043;SDS011;17710;52.520;13.352;2022-09-24T08:57:02;16.33;;;7.05;;
31043;SDS011;17710;52.520;13.352;2022-09-24T08:59:37;9.25;;;7.05;;
31043;SDS011;17710;52.520;13.352;2022-09-24T09:02:15;11.70;;;6.70;;
31043;SDS011;17710;52.520;13.352;2022-09-24T09:05:01;11.60;;;6.90;;
31043;SDS011;17710;52.520;13.352;2022-09-24T09:10:10;15.60;;;6.68;;
31043;SDS011;17710;52.520;13.352;2022-09-24T09:12:43;11.07;;;6.65;;
31043;SDS011;17710;52.520;13.352;2022-09-24T09:15:18;9.45;;;6.68;;
31043;SDS011;17710;52.520;13.352;2022-09-24T09:17:46;13.40;;;7.38;;
31043;SDS011;17710;52.520;13.352;2022-09-24T09:20:18;12.07;;;6.70;;
31043;SDS011;17710;52.520;13.352;2022-09-24T09:22:49;11.10;;;5.85;;
31043;SDS011;17710;52.520;13.352;2022-09-24T09:25:20;12.48;;;6.47;;
31043;SDS011;17710;52.520;13.352;2022-09-24T09:27:54;10.10;;;6.63;;
31043;SDS011;17710;52.520;13.352;2022-09-24T09:30:26;9.50;;;6.60;;
31043;SDS011;17710;52.520;13.352;2022-09-24T09:33:02;12.23;;;6.63;;
31043;SDS011;17710;52.520;13.352;2022-09-24T09:35:44;9.88;;;6.90;;
31043;SDS011;17710;52.520;13.352;2022-09-24T09:38:18;12.00;;;8.30;;
31043;SDS011;17710;52.520;13.352;2022-09-24T09:40:51;9.75;;;7.20;;
31043;SDS011;17710;52.520;13.352;2022-09-24T09:43:23;13.95;;;7.43;;
31043;SDS011;17710;52.520;13.352;2022-09-24T09:45:55;9.25;;;7.85;;
31043;SDS011;17710;52.520;13.352;2022-09-24T09:48:37;10.27;;;6.90;;
31043;SDS011;17710;52.520;13.352;2022-09-24T09:51:11;14.15;;;7.68;;
31043;SDS011;17710;52.520;13.352;2022-09-24T09:53:51;10.18;;;7.15;;
31043;SDS011;17710;52.520;13.352;2022-09-24T09:56:21;12.13;;;6.63;;
31043;SDS011;17710;52.520;13.352;2022-09-24T09:58:49;11.55;;;6.43;;
31043;SDS011;17710;52.520;13.352;2022-09-24T10:01:21;12.10;;;6.60;;
31043;SDS011;17710;52.520;13.352;2022-09-24T10:03:59;18.13;;;7.55;;
31043;SDS011;17710;52.520;13.352;2022-09-24T10:06:32;9.35;;;6.35;;
31043;SDS011;17710;52.520;13.352;2022-09-24T10:09:07;7.93;;;6.13;;
31043;SDS011;17710;52.520;13.352;2022-09-24T10:11:37;9.73;;;6.40;;
31043;SDS011;17710;52.520;13.352;2022-09-24T10:14:04;9.27;;;6.90;;
31043;SDS011;17710;52.520;13.352;2022-09-24T10:16:38;7.03;;;6.32;;
31043;SDS011;17710;52.520;13.352;2022-09-24T10:19:13;11.60;;;6.97;;
31043;SDS011;17710;52.520;13.352;2022-09-24T10:21:42;14.27;;;6.43;;
31043;SDS011;17710;52.520;13.352;2022-09-24T10:24:10;9.75;;;5.90;;
31043;SDS011;17710;52.520;13.352;2022-09-24T10:26:41;8.68;;;5.75;;
31043;SDS011;17710;52.520;13.352;2022-09-24T10:29:11;14.18;;;6.38;;
31043;SDS011;17710;52.520;13.352;2022-09-24T10:31:59;11.10;;;7.30;;
31043;SDS011;17710;52.520;13.352;2022-09-24T10:34:28;10.88;;;6.43;;
31043;SDS011;17710;52.520;13.352;2022-09-24T10:36:57;8.63;;;5.90;;
31043;SDS011;17710;52.520;13.352;2022-09-24T10:39:29;7.90;;;5.68;;
31043;SDS011;17710;52.520;13.352;2022-09-24T10:41:58;9.45;;;5.75;;
31043;SDS011;17710;52.520;13.352;2022-09-24T10:44:25;9.10;;;5.95;;
31043;SDS011;17710;52.520;13.352;2022-09-24T10:47:11;7.63;;;5.80;;
31043;SDS011;17710;52.520;13.352;2022-09-24T10:49:54;9.45;;;6.18;;
31043;SDS011;17710;52.520;13.352;2022-09-24T10:55:09;8.93;;;5.82;;
31043;SDS011;17710;52.520;13.352;2022-09-24T10:57:48;7.28;;;5.45;;
31043;SDS011;17710;52.520;13.352;2022-09-24T11:00:23;10.15;;;6.18;;
31043;SDS011;17710;52.520;13.352;2022-09-24T11:03:04;9.35;;;6.13;;
31043;SDS011;17710;52.520;13.352;2022-09-24T11:05:49;7.72;;;5.72;;
31043;SDS011;17710;52.520;13.352;2022-09-24T11:08:20;9.00;;;6.68;;
31043;SDS011;17710;52.520;13.352;2022-09-24T11:10:55;8.88;;;6.07;;
31043;SDS011;17710;52.520;13.352;2022-09-24T11:13:35;8.57;;;6.10;;
31043;SDS011;17710;52.520;13.352;2022-09-24T11:16:14;9.82;;;5.97;;
31043;SDS011;17710;52.520;13.352;2022-09-24T11:18:59;11.23;;;5.93;;
31043;SDS011;17710;52.520;13.352;2022-09-24T11:21:33;10.93;;;5.43;;
31043;SDS011;17710;52.520;13.352;2022-09-24T11:24:31;14.95;;;6.55;;
31043;SDS011;17710;52.520;13.352;2022-09-24T11:27:11;7.05;;;5.50;;
31043;SDS011;17710;52.520;13.352;2022-09-24T11:29:57;8.70;;;5.43;;
31043;SDS011;17710;52.520;13.352;2022-09-24T11:32:39;6.97;;;4.68;;
31043;SDS011;17710;52.520;13.352;2022-09-24T11:35:21;6.35;;;4.57;;
31043;SDS011;17710;52.520;13.352;2022-09-24T11:37:58;6.70;;;4.97;;
31043;SDS011;17710;52.520;13.352;2022-09-24T11:40:28;7.25;;;4.68;;
31043;SDS011;17710;52.520;13.352;2022-09-24T11:43:10;9.38;;;4.50;;
31043;SDS011;17710;52.520;13.352;2022-09-24T11:45:59;5.88;;;4.63;;
31043;SDS011;17710;52.520;13.352;2022-09-24T11:48:41;8.40;;;4.45;;
31043;SDS011;17710;52.520;13.352;2022-09-24T11:51:20;8.95;;;4.72;;
31043;SDS011;17710;52.520;13.352;2022-09-24T11:53:56;5.43;;;4.20;;
31043;SDS011;17710;52.520;13.352;2022-09-24T11:56:27;8.15;;;4.68;;
31043;SDS011;17710;52.520;13.352;2022-09-24T11:58:59;8.30;;;4.65;;
31043;SDS011;17710;52.520;13.352;2022-09-24T12:01:37;4.97;;;4.18;;
31043;SDS011;17710;52.520;13.352;2022-09-24T12:04:15;5.70;;;4.40;;
31043;SDS011;17710;52.520;13.352;2022-09-24T12:06:51;12.38;;;4.20;;
31043;SDS011;17710;52.520;13.352;2022-09-24T12:09:24;10.63;;;4.53;;
31043;SDS011;17710;52.520;13.352;2022-09-24T12:11:57;8.40;;;4.93;;
31043;SDS011;17710;52.520;13.352;2022-09-24T12:14:30;7.03;;;4.47;;
31043;SDS011;17710;52.520;13.352;2022-09-24T12:17:09;6.82;;;4.03;;
31043;SDS011;17710;52.520;13.352;2022-09-24T12:19:47;10.13;;;4.43;;
31043;SDS011;17710;52.520;13.352;2022-09-24T12:22:20;9.00;;;4.30;;
31043;SDS011;17710;52.520;13.352;2022-09-24T12:24:50;6.93;;;4.90;;
31043;SDS011;17710;52.520;13.352;2022-09-24T12:27:18;6.05;;;4.32;;
31043;SDS011;17710;52.520;13.352;2022-09-24T12:29:50;7.38;;;4.40;;
31043;SDS011;17710;52.520;13.352;2022-09-24T12:32:44;7.03;;;4.93;;
31043;SDS011;17710;52.520;13.352;2022-09-24T12:35:25;8.15;;;4.80;;
31043;SDS011;17710;52.520;13.352;2022-09-24T12:38:05;6.50;;;4.75;;
31043;SDS011;17710;52.520;13.352;2022-09-24T12:40:50;8.55;;;5.22;;
31043;SDS011;17710;52.520;13.352;2022-09-24T12:43:36;9.30;;;5.43;;
31043;SDS011;17710;52.520;13.352;2022-09-24T12:46:13;5.80;;;4.75;;
31043;SDS011;17710;52.520;13.352;2022-09-24T12:48:43;12.05;;;5.30;;
31043;SDS011;17710;52.520;13.352;2022-09-24T12:51:11;6.72;;;4.40;;
31043;SDS011;17710;52.520;13.352;2022-09-24T12:53:41;8.68;;;4.95;;
31043;SDS011;17710;52.520;13.352;2022-09-24T12:56:21;7.05;;;4.90;;
31043;SDS011;17710;52.520;13.352;2022-09-24T12:58:51;6.72;;;4.38;;
31043;SDS011;17710;52.520;13.352;2022-09-24T13:01:29;12.15;;;5.50;;
31043;SDS011;17710;52.520;13.352;2022-09-24T13:06:53;5.28;;;4.70;;
31043;SDS011;17710;52.520;13.352;2022-09-24T13:09:23;5.88;;;4.30;;
31043;SDS011;17710;52.520;13.352;2022-09-24T13:12:01;8.60;;;4.80;;
31043;SDS011;17710;52.520;13.352;2022-09-24T13:14:32;8.20;;;4.70;;
31043;SDS011;17710;52.520;13.352;2022-09-24T13:17:03;8.18;;;4.90;;
31043;SDS011;17710;52.520;13.352;2022-09-24T13:19:33;7.25;;;4.97;;
31043;SDS011;17710;52.520;13.352;2022-09-24T13:22:04;5.43;;;4.82;;
31043;SDS011;17710;52.520;13.352;2022-09-24T13:24:43;10.48;;;5.35;;
31043;SDS011;17710;52.520;13.352;2022-09-24T13:27:22;9.18;;;5.72;;
31043;SDS011;17710;52.520;13.352;2022-09-24T13:30:03;7.55;;;5.20;;
31043;SDS011;17710;52.520;13.352;2022-09-24T13:32:42;6.47;;;5.20;;
31043;SDS011;17710;52.520;13.352;2022-09-24T13:35:14;6.43;;;5.40;;
31043;SDS011;17710;52.520;13.352;2022-09-24T13:37:46;6.40;;;5.30;;
31043;SDS011;17710;52.520;13.352;2022-09-24T13:40:20;9.20;;;5.25;;
31043;SDS011;17710;52.520;13.352;2022-09-24T13:42:56;9.77;;;6.15;;
31043;SDS011;17710;52.520;13.352;2022-09-24T13:45:28;10.52;;;5.53;;
31043;SDS011;17710;52.520;13.352;2022-09-24T13:48:03;8.10;;;6.22;;
31043;SDS011;17710;52.520;13.352;2022-09-24T13:50:32;8.10;;;5.43;;
31043;SDS011;17710;52.520;13.352;2022-09-24T13:53:01;7.40;;;5.10;;
31043;SDS011;17710;52.520;13.352;2022-09-24T13:55:33;9.75;;;6.03;;
31043;SDS011;17710;52.520;13.352;2022-09-24T13:58:03;8.02;;;5.60;;
31043;SDS011;17710;52.520;13.352;2022-09-24T14:00:30;10.63;;;5.70;;
31043;SDS011;17710;52.520;13.352;2022-09-24T14:02:59;8.30;;;5.45;;
31043;SDS011;17710;52.520;13.352;2022-09-24T14:05:27;13.82;;;5.82;;
31043;SDS011;17710;52.520;13.352;2022-09-24T14:07:57;9.05;;;5.82;;
31043;SDS011;17710;52.520;13.352;2022-09-24T14:10:28;6.85;;;5.20;;
31043;SDS011;17710;52.520;13.352;2022-09-24T14:13:01;7.00;;;4.80;;
31043;SDS011;17710;52.520;13.352;2022-09-24T14:15:34;7.22;;;5.10;;
31043;SDS011;17710;52.520;13.352;2022-09-24T14:18:01;8.70;;;5.22;;
31043;SDS011;17710;52.520;13.352;2022-09-24T14:20:32;8.55;;;4.78;;
31043;SDS011;17710;52.520;13.352;2022-09-24T14:23:00;7.05;;;5.07;;
31043;SDS011;17710;52.520;13.352;2022-09-24T14:25:33;7.60;;;4.95;;
31043;SDS011;17710;52.520;13.352;2022-09-24T14:28:05;7.80;;;5.32;;
31043;SDS011;17710;52.520;13.352;2022-09-24T14:30:45;6.45;;;5.15;;
31043;SDS011;17710;52.520;13.352;2022-09-24T14:33:23;10.32;;;5.55;;
31043;SDS011;17710;52.520;13.352;2022-09-24T14:35:51;8.00;;;5.90;;
31043;SDS011;17710;52.520;13.352;2022-09-24T14:38:22;7.68;;;5.72;;
31043;SDS011;17710;52.520;13.352;2022-09-24T14:40:54;8.90;;;4.90;;
31043;SDS011;17710;52.520;13.352;2022-09-24T14:43:25;5.82;;;4.63;;
31043;SDS011;17710;52.520;13.352;2022-09-24T14:46:00;5.72;;;4.68;;
31043;SDS011;17710;52.520;13.352;2022-09-24T14:48:31;7.97;;;5.90;;
31043;SDS011;17710;52.520;13.352;2022-09-24T14:50:59;8.07;;;5.10;;
31043;SDS011;17710;52.520;13.352;2022-09-24T14:53:26;6.38;;;4.60;;
31043;SDS011;17710;52.520;13.352;2022-09-24T14:55:55;8.50;;;4.90;;
31043;SDS011;17710;52.520;13.352;2022-09-24T14:58:23;6.72;;;4.50;;
31043;SDS011;17710;52.520;13.352;2022-09-24T15:00:59;5.47;;;3.90;;
31043;SDS011;17710;52.520;13.352;2022-09-24T15:03:31;6.57;;;4.25;;
31043;SDS011;17710;52.520;13.352;2022-09-24T15:06:12;5.15;;;3.60;;